createdAt,value
2023-03-30T00:00:22.690Z,10.62
2023-03-30T00:02:52.812Z,10.56
2023-03-30T00:05:19.586Z,10.62
2023-03-30T00:07:46.229Z,10.45
2023-03-30T00:10:18.221Z,10.45
2023-03-30T00:12:46.471Z,10.53
2023-03-30T00:15:14.602Z,10.40
2023-03-30T00:17:40.625Z,10.51
2023-03-30T00:20:11.095Z,10.53
2023-03-30T00:22:38.358Z,10.45
2023-03-30T00:25:08.059Z,10.49
2023-03-30T00:27:35.426Z,10.44
2023-03-30T00:30:02.048Z,10.51
2023-03-30T00:32:28.035Z,10.65
2023-03-30T00:34:53.875Z,10.68
2023-03-30T00:37:19.689Z,10.62
2023-03-30T00:39:45.484Z,10.69
2023-03-30T00:42:15.979Z,10.84
2023-03-30T00:45:16.893Z,10.68
2023-03-30T00:47:48.528Z,10.61
2023-03-30T00:50:16.132Z,10.63
2023-03-30T00:52:44.168Z,10.77
2023-03-30T00:55:11.298Z,10.72
2023-03-30T00:57:39.671Z,10.71
2023-03-30T01:00:09.723Z,10.66
2023-03-30T01:02:42.405Z,10.83
2023-03-30T01:05:11.135Z,10.93
2023-03-30T01:07:38.953Z,10.79
2023-03-30T01:10:05.954Z,10.87
2023-03-30T01:12:32.139Z,10.85
2023-03-30T01:14:58.023Z,10.76
2023-03-30T01:17:52.428Z,10.78
2023-03-30T01:20:45.653Z,10.83
2023-03-30T01:23:15.012Z,10.76
2023-03-30T01:26:06.269Z,10.71
2023-03-30T01:28:51.717Z,10.68
2023-03-30T01:31:38.910Z,10.67
2023-03-30T01:34:29.094Z,10.64
2023-03-30T01:37:00.628Z,10.91
2023-03-30T01:39:48.427Z,10.92
2023-03-30T01:42:20.791Z,10.96
2023-03-30T01:45:30.936Z,11.02
2023-03-30T01:48:18.291Z,10.91
2023-03-30T01:50:56.552Z,10.99
2023-03-30T01:53:38.932Z,10.87
2023-03-30T01:56:25.909Z,10.97
2023-03-30T01:58:53.776Z,10.93
2023-03-30T02:01:20.743Z,10.94
2023-03-30T02:03:58.520Z,11.05
2023-03-30T02:06:38.003Z,11.13
2023-03-30T02:09:06.970Z,11.14
2023-03-30T02:11:34.335Z,11.04
2023-03-30T02:14:02.174Z,11.07
2023-03-30T02:16:41.944Z,11.01
2023-03-30T02:19:08.543Z,10.98
2023-03-30T02:21:34.945Z,11.15
2023-03-30T02:24:02.893Z,11.07
2023-03-30T02:26:29.558Z,11.26
2023-03-30T02:28:55.593Z,11.28
2023-03-30T02:31:21.829Z,11.32
2023-03-30T02:34:11.729Z,11.29
2023-03-30T02:36:48.970Z,11.32
2023-03-30T02:39:29.232Z,11.32
2023-03-30T02:42:22.856Z,11.33
2023-03-30T02:45:07.688Z,11.46
2023-03-30T02:47:51.799Z,11.40
2023-03-30T02:50:29.528Z,11.35
2023-03-30T02:53:25.106Z,11.44
2023-03-30T02:56:03.409Z,11.38
2023-03-30T02:58:40.700Z,11.39
2023-03-30T03:01:15.513Z,11.41
2023-03-30T03:03:44.844Z,11.33
2023-03-30T03:06:13.857Z,11.38
2023-03-30T03:08:42.585Z,11.44
2023-03-30T03:11:08.909Z,11.53
2023-03-30T03:13:36.576Z,11.43
2023-03-30T03:16:07.331Z,11.48
2023-03-30T03:18:39.122Z,11.32
2023-03-30T03:21:06.733Z,11.44
2023-03-30T03:23:33.442Z,11.44
2023-03-30T03:25:59.617Z,11.42
2023-03-30T03:28:27.031Z,11.38
2023-03-30T03:30:53.553Z,11.43
2023-03-30T03:33:19.791Z,11.37
2023-03-30T03:35:45.923Z,11.39
2023-03-30T03:38:13.242Z,11.29
2023-03-30T03:40:40.344Z,11.35
2023-03-30T03:43:06.319Z,11.46
2023-03-30T03:45:33.168Z,11.53
2023-03-30T03:47:59.216Z,11.47
2023-03-30T03:50:25.507Z,11.60
2023-03-30T03:52:51.323Z,11.61
2023-03-30T03:55:17.252Z,11.53
2023-03-30T03:57:44.302Z,11.57
2023-03-30T04:00:15.863Z,11.50
2023-03-30T04:02:43.253Z,11.65
2023-03-30T04:05:10.056Z,11.57
2023-03-30T04:07:36.298Z,11.49
2023-03-30T04:10:04.025Z,11.47
2023-03-30T04:12:30.476Z,11.37
2023-03-30T04:14:56.399Z,11.29
2023-03-30T04:17:23.043Z,11.25
2023-03-30T04:19:53.047Z,11.25
2023-03-30T04:22:19.701Z,11.17
2023-03-30T04:24:45.693Z,11.28
2023-03-30T04:27:13.765Z,11.30
2023-03-30T04:29:40.376Z,11.22
2023-03-30T04:32:06.984Z,11.26
2023-03-30T04:34:32.932Z,11.09
2023-03-30T04:36:58.742Z,10.99
2023-03-30T04:39:29.513Z,11.10
2023-03-30T04:41:55.440Z,11.16
2023-03-30T04:44:21.416Z,11.08
2023-03-30T04:46:47.361Z,11.02
2023-03-30T04:49:13.173Z,11.12
2023-03-30T04:51:40.201Z,11.01
2023-03-30T04:54:06.001Z,10.94
2023-03-30T04:56:31.849Z,11.00
2023-03-30T04:58:57.712Z,11.02
2023-03-30T05:01:23.765Z,11.04
2023-03-30T05:03:49.746Z,11.22
2023-03-30T05:06:15.591Z,11.14
2023-03-30T05:08:41.950Z,11.18
2023-03-30T05:11:08.294Z,11.27
2023-03-30T05:13:34.110Z,11.23
2023-03-30T05:16:00.880Z,11.26
2023-03-30T05:18:26.735Z,11.29
2023-03-30T05:20:56.334Z,11.24
2023-03-30T05:23:23.745Z,11.28
2023-03-30T05:25:49.780Z,11.39
2023-03-30T05:28:16.450Z,11.23
2023-03-30T05:30:43.510Z,11.15
2023-03-30T05:33:09.422Z,11.27
2023-03-30T05:35:38.221Z,11.30
2023-03-30T05:38:06.539Z,11.30
2023-03-30T05:40:32.359Z,11.18
2023-03-30T05:42:58.408Z,11.31
2023-03-30T05:45:24.274Z,11.17
2023-03-30T05:47:52.702Z,11.12
2023-03-30T05:50:18.482Z,11.09
2023-03-30T05:52:44.318Z,11.06
2023-03-30T05:55:11.307Z,11.12
2023-03-30T05:57:37.567Z,11.16
2023-03-30T06:00:06.346Z,11.17
2023-03-30T06:02:32.240Z,11.27
2023-03-30T06:05:00.788Z,11.26
2023-03-30T06:07:27.261Z,11.14
2023-03-30T06:09:53.398Z,11.18
2023-03-30T06:12:19.228Z,11.19
2023-03-30T06:14:45.328Z,11.18
2023-03-30T06:17:15.260Z,11.07
2023-03-30T06:19:41.563Z,11.14
2023-03-30T06:22:08.514Z,11.13
2023-03-30T06:24:34.268Z,11.08
2023-03-30T06:27:02.266Z,11.06
2023-03-30T06:29:28.320Z,11.05
2023-03-30T06:31:54.373Z,11.05
2023-03-30T06:34:20.782Z,11.04
2023-03-30T06:36:47.103Z,11.16
2023-03-30T06:39:13.759Z,11.16
2023-03-30T06:41:40.184Z,11.14
2023-03-30T06:44:09.505Z,11.09
2023-03-30T06:46:35.694Z,11.21
2023-03-30T06:49:01.929Z,11.07
2023-03-30T06:51:28.273Z,11.16
2023-03-30T06:53:54.108Z,11.11
2023-03-30T06:56:20.535Z,11.14
2023-03-30T06:58:46.599Z,11.12
2023-03-30T07:01:13.767Z,11.30
2023-03-30T07:03:40.729Z,11.27
2023-03-30T07:06:07.923Z,11.18
2023-03-30T07:08:35.097Z,11.26
2023-03-30T07:11:02.405Z,11.31
2023-03-30T07:13:28.425Z,11.32
2023-03-30T07:15:54.261Z,11.35
2023-03-30T07:18:20.302Z,11.44
2023-03-30T07:20:46.442Z,11.57
2023-03-30T07:23:12.544Z,11.60
2023-03-30T07:25:39.610Z,11.67
2023-03-30T07:28:05.781Z,11.72
2023-03-30T07:30:35.720Z,11.80
2023-03-30T07:33:02.124Z,11.79
2023-03-30T07:35:28.009Z,11.69
2023-03-30T07:38:02.311Z,11.78
2023-03-30T07:40:29.511Z,11.77
2023-03-30T07:42:55.262Z,11.77
2023-03-30T07:45:21.048Z,11.84
2023-03-30T07:47:46.933Z,11.98
2023-03-30T07:50:12.780Z,11.92
2023-03-30T07:52:38.876Z,11.99
2023-03-30T07:55:04.931Z,12.13
2023-03-30T07:57:31.464Z,12.15
2023-03-30T07:59:57.443Z,12.24
2023-03-30T08:02:23.333Z,12.19
2023-03-30T08:04:49.268Z,12.27
2023-03-30T08:07:15.944Z,12.26
2023-03-30T08:09:43.399Z,12.21
2023-03-30T08:12:09.148Z,12.22
2023-03-30T08:14:34.938Z,12.42
2023-03-30T08:17:00.836Z,12.45
2023-03-30T08:19:27.754Z,12.37
2023-03-30T08:21:54.303Z,12.19
2023-03-30T08:24:20.374Z,12.15
2023-03-30T08:26:46.459Z,12.12
2023-03-30T08:29:12.311Z,12.14
2023-03-30T08:31:38.193Z,12.03
2023-03-30T08:34:04.070Z,11.85
2023-03-30T08:36:30.764Z,11.81
2023-03-30T08:38:56.773Z,11.81
2023-03-30T08:41:28.413Z,11.84
2023-03-30T08:44:02.875Z,11.72
2023-03-30T08:46:29.975Z,11.78
2023-03-30T08:49:00.394Z,11.95
2023-03-30T08:51:32.502Z,11.86
2023-03-30T08:54:08.116Z,11.93
2023-03-30T08:56:39.645Z,11.90
2023-03-30T08:59:18.005Z,11.84
2023-03-30T09:01:53.544Z,11.98
2023-03-30T09:04:57.154Z,11.32
2023-03-30T09:07:31.158Z,10.51
2023-03-30T09:09:57.319Z,10.20
2023-03-30T09:12:47.892Z,10.06
2023-03-30T09:15:21.880Z,9.83
2023-03-30T09:17:54.389Z,9.80
2023-03-30T09:20:24.582Z,9.89
2023-03-30T09:22:53.005Z,9.89
2023-03-30T09:25:59.939Z,9.86
2023-03-30T09:28:43.959Z,9.88
2023-03-30T09:31:54.396Z,9.80
2023-03-30T09:34:37.426Z,9.93
2023-03-30T09:37:11.728Z,10.05
2023-03-30T09:39:38.921Z,10.06
2023-03-30T09:42:29.093Z,10.29
2023-03-30T09:44:59.263Z,10.25
2023-03-30T09:47:36.254Z,10.37
2023-03-30T09:50:08.778Z,10.45
2023-03-30T09:52:39.401Z,10.33
2023-03-30T09:55:20.506Z,10.32
2023-03-30T09:57:52.817Z,10.07
2023-03-30T10:00:33.230Z,10.08
2023-03-30T10:03:05.877Z,9.84
2023-03-30T10:05:34.882Z,9.78
2023-03-30T10:08:16.688Z,9.82
2023-03-30T10:10:42.698Z,9.98
2023-03-30T10:13:14.919Z,9.84
2023-03-30T10:15:45.306Z,9.70
2023-03-30T10:18:38.364Z,9.48
2023-03-30T10:21:27.535Z,9.32
2023-03-30T10:24:09.053Z,9.10
2023-03-30T10:26:37.283Z,9.10
2023-03-30T10:29:06.712Z,8.95
2023-03-30T10:31:35.982Z,8.57
2023-03-30T10:34:04.560Z,8.45
2023-03-30T10:36:40.279Z,8.48
2023-03-30T10:39:25.020Z,8.48
2023-03-30T10:41:52.658Z,8.37
2023-03-30T10:44:35.997Z,8.44
2023-03-30T10:47:40.480Z,8.35
2023-03-30T10:50:22.752Z,8.47
2023-03-30T10:52:59.405Z,8.72
2023-03-30T10:55:48.985Z,9.05
2023-03-30T10:58:14.758Z,9.23
2023-03-30T11:00:52.350Z,9.58
2023-03-30T11:03:31.870Z,10.78
2023-03-30T11:06:12.213Z,11.99
2023-03-30T11:08:43.239Z,11.87
2023-03-30T11:11:17.749Z,11.29
2023-03-30T11:13:56.026Z,10.73
2023-03-30T11:16:36.526Z,10.62
2023-03-30T11:19:06.408Z,11.03
2023-03-30T11:21:58.244Z,11.81
2023-03-30T11:24:26.996Z,12.25
2023-03-30T11:27:09.762Z,11.94
2023-03-30T11:29:45.882Z,12.23
2023-03-30T11:32:42.983Z,13.11
2023-03-30T11:35:27.214Z,13.17
2023-03-30T11:37:56.558Z,13.58
2023-03-30T11:40:27.032Z,13.56
2023-03-30T11:42:53.312Z,13.83
2023-03-30T11:45:52.310Z,14.33
2023-03-30T11:48:35.155Z,14.31
2023-03-30T11:51:27.622Z,13.38
2023-03-30T11:54:12.828Z,13.78
2023-03-30T11:57:20.583Z,13.32
2023-03-30T11:59:49.125Z,13.57
2023-03-30T12:02:33.411Z,13.92
2023-03-30T12:05:36.670Z,14.47
2023-03-30T12:08:41.769Z,13.70
2023-03-30T12:11:17.682Z,12.92
2023-03-30T12:13:51.250Z,13.18
2023-03-30T12:16:37.266Z,12.61
2023-03-30T12:19:16.181Z,12.94
2023-03-30T12:21:57.106Z,12.88
2023-03-30T12:24:37.335Z,12.81
2023-03-30T12:27:05.792Z,12.85
2023-03-30T12:32:29.006Z,13.55
2023-03-30T12:34:56.855Z,12.96
2023-03-30T12:37:37.290Z,13.28
2023-03-30T12:40:09.705Z,12.96
2023-03-30T12:42:45.674Z,12.73
2023-03-30T12:45:14.355Z,12.34
2023-03-30T12:47:51.899Z,11.84
2023-03-30T12:50:39.142Z,11.45
2023-03-30T12:53:07.637Z,11.13
2023-03-30T12:55:46.782Z,10.83
2023-03-30T12:58:30.644Z,10.70
2023-03-30T13:01:18.174Z,10.64
2023-03-30T13:04:08.308Z,10.61
2023-03-30T13:06:59.033Z,10.53
2023-03-30T13:09:24.786Z,10.29
2023-03-30T13:11:53.388Z,10.26
2023-03-30T13:14:38.577Z,10.08
2023-03-30T13:17:07.515Z,9.79
2023-03-30T13:19:33.412Z,9.29
2023-03-30T13:22:11.401Z,9.36
2023-03-30T13:25:21.549Z,10.05
2023-03-30T13:27:50.528Z,10.69
2023-03-30T13:30:16.824Z,11.10
2023-03-30T13:33:11.333Z,11.72
2023-03-30T13:36:11.517Z,12.02
2023-03-30T13:38:57.995Z,12.68
2023-03-30T13:41:43.653Z,12.81
2023-03-30T13:44:25.947Z,12.74
2023-03-30T13:47:20.959Z,12.26
2023-03-30T13:50:12.314Z,12.35
2023-03-30T13:52:45.814Z,11.97
2023-03-30T13:55:27.846Z,11.80
2023-03-30T13:58:00.374Z,12.28
2023-03-30T14:00:46.505Z,13.21
2023-03-30T14:03:26.576Z,13.35
2023-03-30T14:05:53.532Z,12.78
2023-03-30T14:08:19.942Z,12.39
2023-03-30T14:10:48.583Z,11.95
2023-03-30T14:13:18.302Z,11.63
2023-03-30T14:15:44.671Z,11.57
2023-03-30T14:18:22.310Z,11.44
2023-03-30T14:21:03.479Z,11.03
2023-03-30T14:23:41.719Z,10.97
2023-03-30T14:26:28.263Z,11.03
2023-03-30T14:29:02.114Z,11.30
2023-03-30T14:31:36.879Z,11.86
2023-03-30T14:34:23.654Z,11.54
2023-03-30T14:36:49.716Z,11.61
2023-03-30T14:39:19.187Z,12.23
2023-03-30T14:41:45.547Z,12.77
2023-03-30T14:44:13.158Z,12.79
2023-03-30T14:46:46.108Z,13.03
2023-03-30T14:49:27.825Z,12.77
2023-03-30T14:52:16.494Z,12.40
2023-03-30T14:54:51.566Z,12.54
2023-03-30T14:57:29.358Z,13.08
2023-03-30T14:59:59.449Z,13.51
2023-03-30T15:02:29.389Z,13.95
2023-03-30T15:04:56.835Z,13.76
2023-03-30T15:07:23.853Z,13.31
2023-03-30T15:09:55.638Z,12.43
2023-03-30T15:12:42.361Z,12.55
2023-03-30T15:15:12.246Z,13.09
2023-03-30T15:17:43.087Z,13.55
2023-03-30T15:20:11.754Z,12.99
2023-03-30T15:22:47.797Z,12.53
2023-03-30T15:25:18.847Z,12.17
2023-03-30T15:27:57.122Z,12.01
2023-03-30T15:30:29.647Z,12.68
2023-03-30T15:32:56.778Z,12.56
2023-03-30T15:35:26.057Z,12.23
2023-03-30T15:37:59.470Z,12.43
2023-03-30T15:40:37.183Z,12.80
2023-03-30T15:43:26.551Z,12.86
2023-03-30T15:45:55.851Z,13.10
2023-03-30T15:48:44.733Z,12.79
2023-03-30T15:51:21.295Z,12.77
2023-03-30T15:53:55.663Z,12.61
2023-03-30T15:56:36.759Z,12.25
2023-03-30T15:59:03.163Z,12.07
2023-03-30T16:01:46.994Z,11.70
2023-03-30T16:04:15.679Z,11.69
2023-03-30T16:06:43.605Z,11.72
2023-03-30T16:09:10.592Z,11.66
2023-03-30T16:11:37.147Z,11.46
2023-03-30T16:14:06.354Z,11.35
2023-03-30T16:16:33.423Z,11.38
2023-03-30T16:19:00.164Z,11.45
2023-03-30T16:21:26.057Z,11.43
2023-03-30T16:23:51.963Z,11.42
2023-03-30T16:26:18.647Z,11.18
2023-03-30T16:28:45.048Z,11.42
2023-03-30T16:31:16.551Z,11.21
2023-03-30T16:33:42.505Z,11.05
2023-03-30T16:36:13.719Z,10.90
2023-03-30T16:38:39.621Z,10.93
2023-03-30T16:41:06.707Z,10.75
2023-03-30T16:43:32.812Z,10.69
2023-03-30T16:45:58.866Z,10.74
2023-03-30T16:48:26.321Z,10.91
2023-03-30T16:50:54.171Z,10.63
2023-03-30T16:53:20.040Z,10.65
2023-03-30T16:55:46.184Z,10.72
2023-03-30T16:58:13.842Z,10.77
2023-03-30T17:00:46.390Z,10.82
2023-03-30T17:03:12.784Z,10.85
2023-03-30T17:05:39.316Z,10.84
2023-03-30T17:08:25.203Z,10.59
2023-03-30T17:10:52.300Z,10.42
2023-03-30T17:13:18.581Z,10.38
2023-03-30T17:15:44.803Z,10.15
2023-03-30T17:18:17.130Z,10.19
2023-03-30T17:20:52.412Z,10.12
2023-03-30T17:23:24.667Z,10.02
2023-03-30T17:25:52.544Z,9.99
2023-03-30T17:28:29.673Z,10.02
2023-03-30T17:31:01.643Z,9.86
2023-03-30T17:33:28.022Z,9.68
2023-03-30T17:36:09.670Z,9.60
2023-03-30T17:38:36.167Z,9.49
2023-03-30T17:41:02.613Z,9.61
2023-03-30T17:43:28.528Z,9.58
2023-03-30T17:45:54.561Z,9.72
2023-03-30T17:48:21.547Z,9.73
2023-03-30T17:50:49.644Z,9.78
2023-03-30T17:53:17.512Z,9.76
2023-03-30T17:55:45.279Z,9.65
2023-03-30T17:58:15.018Z,9.67
2023-03-30T18:00:41.131Z,9.59
2023-03-30T18:03:07.076Z,9.48
2023-03-30T18:05:33.895Z,9.59
2023-03-30T18:08:00.217Z,9.63
2023-03-30T18:10:38.013Z,9.64
2023-03-30T18:13:04.898Z,9.65
2023-03-30T18:15:31.822Z,9.63
2023-03-30T18:17:59.495Z,9.68
2023-03-30T18:20:35.096Z,9.70
2023-03-30T18:23:01.148Z,9.58
2023-03-30T18:25:32.470Z,9.58
2023-03-30T18:27:59.931Z,9.66
2023-03-30T18:30:29.899Z,9.68
2023-03-30T18:32:56.976Z,9.75
2023-03-30T18:35:26.043Z,9.71
2023-03-30T18:37:53.351Z,9.71
2023-03-30T18:40:32.830Z,9.80
2023-03-30T18:43:00.113Z,9.77
2023-03-30T18:45:27.569Z,9.78
2023-03-30T18:47:54.396Z,9.87
2023-03-30T18:50:32.777Z,9.71
2023-03-30T18:53:01.616Z,9.78
2023-03-30T18:55:29.710Z,9.78
2023-03-30T18:57:57.396Z,9.75
2023-03-30T19:00:26.647Z,9.67
2023-03-30T19:02:53.704Z,9.59
2023-03-30T19:05:21.434Z,9.68
2023-03-30T19:07:48.054Z,9.73
2023-03-30T19:10:20.219Z,9.80
2023-03-30T19:12:48.345Z,9.82
2023-03-30T19:15:21.346Z,9.87
2023-03-30T19:17:47.300Z,9.81
2023-03-30T19:20:14.489Z,9.79
2023-03-30T19:22:40.649Z,9.85
2023-03-30T19:25:07.777Z,9.88
2023-03-30T19:27:33.741Z,9.87
2023-03-30T19:29:59.713Z,9.82
2023-03-30T19:32:25.802Z,9.76
2023-03-30T19:34:51.786Z,9.76
2023-03-30T19:37:18.068Z,9.82
2023-03-30T19:39:44.813Z,9.78
2023-03-30T19:42:10.976Z,9.88
2023-03-30T19:44:37.847Z,9.83
2023-03-30T19:47:04.090Z,9.87
2023-03-30T19:49:29.967Z,9.82
2023-03-30T19:51:55.831Z,9.74
2023-03-30T19:54:21.826Z,9.80
2023-03-30T19:56:47.967Z,9.75
2023-03-30T19:59:13.992Z,9.78
2023-03-30T20:01:39.968Z,9.73
2023-03-30T20:04:06.307Z,9.68
2023-03-30T20:06:35.197Z,9.76
2023-03-30T20:09:02.946Z,9.64
2023-03-30T20:11:29.245Z,9.66
2023-03-30T20:13:55.174Z,9.71
2023-03-30T20:16:21.409Z,9.71
2023-03-30T20:18:49.921Z,9.78
2023-03-30T20:21:17.733Z,9.84
2023-03-30T20:23:44.788Z,9.94
2023-03-30T20:26:16.014Z,9.65
2023-03-30T20:28:42.932Z,9.61
2023-03-30T20:31:11.020Z,9.65
2023-03-30T20:33:37.810Z,9.55
2023-03-30T20:36:05.441Z,9.55
2023-03-30T20:38:31.620Z,9.51
2023-03-30T20:41:01.179Z,9.62
2023-03-30T20:43:27.452Z,9.65
2023-03-30T20:46:02.916Z,9.64
2023-03-30T20:48:32.808Z,9.49
2023-03-30T20:51:04.471Z,9.46
2023-03-30T20:53:31.914Z,9.58
2023-03-30T20:55:57.868Z,9.58
2023-03-30T20:58:24.201Z,9.57
2023-03-30T21:00:57.284Z,9.43
2023-03-30T21:03:28.272Z,9.46
2023-03-30T21:06:05.621Z,9.37
2023-03-30T21:08:32.919Z,9.31
2023-03-30T21:10:59.948Z,9.23
2023-03-30T21:13:25.935Z,9.30
2023-03-30T21:16:04.356Z,9.25
2023-03-30T21:18:31.109Z,9.24
2023-03-30T21:20:57.081Z,9.17
2023-03-30T21:23:25.777Z,9.21
2023-03-30T21:26:01.779Z,9.11
2023-03-30T21:28:28.162Z,9.23
2023-03-30T21:30:56.091Z,9.10
2023-03-30T21:33:23.653Z,9.00
2023-03-30T21:35:50.776Z,8.99
2023-03-30T21:38:18.422Z,8.92
2023-03-30T21:40:57.518Z,8.91
2023-03-30T21:43:23.366Z,9.09
2023-03-30T21:45:59.001Z,8.97
2023-03-30T21:48:26.542Z,8.95
2023-03-30T21:51:07.992Z,9.09
2023-03-30T21:53:35.094Z,8.96
2023-03-30T21:56:02.724Z,9.00
2023-03-30T21:58:28.933Z,8.98
2023-03-30T22:01:04.879Z,8.86
2023-03-30T22:03:38.015Z,8.87
2023-03-30T22:06:07.013Z,8.77
2023-03-30T22:08:33.438Z,8.76
2023-03-30T22:11:02.267Z,8.76
2023-03-30T22:13:28.305Z,8.76
2023-03-30T22:16:04.019Z,8.76
2023-03-30T22:18:30.695Z,8.73
2023-03-30T22:21:01.672Z,8.70
2023-03-30T22:23:28.165Z,8.58
2023-03-30T22:25:54.192Z,8.55
2023-03-30T22:28:20.293Z,8.46
2023-03-30T22:30:46.126Z,8.48
2023-03-30T22:33:12.296Z,8.58
2023-03-30T22:35:43.772Z,8.56
2023-03-30T22:38:10.610Z,8.54
2023-03-30T22:40:38.753Z,8.46
2023-03-30T22:43:05.470Z,8.51
2023-03-30T22:45:31.812Z,8.55
2023-03-30T22:47:58.581Z,8.63
2023-03-30T22:50:26.810Z,8.60
2023-03-30T22:52:53.647Z,8.62
2023-03-30T22:55:20.012Z,8.67
2023-03-30T22:57:46.210Z,8.60
2023-03-30T23:00:12.994Z,8.53
2023-03-30T23:02:39.402Z,8.55
2023-03-30T23:05:09.627Z,8.58
2023-03-30T23:07:38.510Z,8.63
2023-03-30T23:10:07.182Z,8.63
2023-03-30T23:12:33.681Z,8.62
2023-03-30T23:15:00.034Z,8.59
2023-03-30T23:17:26.984Z,8.61
2023-03-30T23:19:53.583Z,8.64
2023-03-30T23:22:20.789Z,8.72
2023-03-30T23:24:46.921Z,8.72
2023-03-30T23:27:12.932Z,8.66
2023-03-30T23:29:38.807Z,8.62
2023-03-30T23:32:05.349Z,8.61
2023-03-30T23:34:42.475Z,8.53
2023-03-30T23:37:08.627Z,8.53
2023-03-30T23:39:34.467Z,8.58
2023-03-30T23:42:00.681Z,8.58
2023-03-30T23:44:27.301Z,8.56
2023-03-30T23:46:53.248Z,8.53
2023-03-30T23:49:19.168Z,8.59
2023-03-30T23:51:45.113Z,8.54
2023-03-30T23:54:14.821Z,8.46
2023-03-30T23:56:42.198Z,8.54
2023-03-30T23:59:09.834Z,8.48
